createdAt,value
2022-12-31T00:01:09.597Z,99638.98
2022-12-31T00:03:47.365Z,99642.36
2022-12-31T00:06:23.793Z,99655.13
2022-12-31T00:09:11.133Z,99660.63
2022-12-31T00:11:43.166Z,99656.23
2022-12-31T00:14:15.215Z,99668.97
2022-12-31T00:16:46.117Z,99669.90
2022-12-31T00:19:17.409Z,99669.26
2022-12-31T00:21:45.936Z,99675.19
2022-12-31T00:24:17.570Z,99679.63
2022-12-31T00:26:48.869Z,99669.87
2022-12-31T00:29:17.426Z,99674.35
2022-12-31T00:31:46.055Z,99673.33
2022-12-31T00:34:22.744Z,99671.54
2022-12-31T00:36:55.691Z,99672.96
2022-12-31T00:39:27.336Z,99669.75
2022-12-31T00:41:56.182Z,99666.98
2022-12-31T00:44:28.147Z,99678.17
2022-12-31T00:46:57.634Z,99664.38
2022-12-31T00:49:26.284Z,99668.40
2022-12-31T00:52:04.346Z,99665.20
2022-12-31T00:54:33.577Z,99657.05
2022-12-31T00:57:02.231Z,99657.44
2022-12-31T00:59:30.967Z,99663.76
2022-12-31T01:02:00.021Z,99666.27
2022-12-31T01:04:36.366Z,99661.45
2022-12-31T01:07:05.259Z,99657.41
2022-12-31T01:09:35.680Z,99653.89
2022-12-31T01:12:05.369Z,99654.04
2022-12-31T01:14:34.023Z,99650.32
2022-12-31T01:17:02.978Z,99658.71
2022-12-31T01:19:31.850Z,99669.83
2022-12-31T01:22:00.840Z,99663.03
2022-12-31T01:24:33.579Z,99661.27
2022-12-31T01:27:02.770Z,99657.57
2022-12-31T01:29:34.532Z,99660.73
2022-12-31T01:32:03.213Z,99675.00
2022-12-31T01:34:35.035Z,99691.73
2022-12-31T01:37:03.701Z,99688.81
2022-12-31T01:39:40.013Z,99681.14
2022-12-31T01:42:11.102Z,99677.05
2022-12-31T01:44:51.486Z,99678.27
2022-12-31T01:47:27.767Z,99676.34
2022-12-31T01:50:02.328Z,99676.66
2022-12-31T01:52:42.260Z,99666.28
2022-12-31T01:55:18.568Z,99666.34
2022-12-31T01:57:49.994Z,99662.70
2022-12-31T02:00:19.495Z,99659.91
2022-12-31T02:02:48.532Z,99662.30
2022-12-31T02:05:33.129Z,99657.23
2022-12-31T02:08:03.366Z,99664.84
2022-12-31T02:10:36.114Z,99672.46
2022-12-31T02:13:05.154Z,99671.92
2022-12-31T02:15:45.605Z,99668.77
2022-12-31T02:18:26.696Z,99672.64
2022-12-31T02:21:19.654Z,99670.55
2022-12-31T02:24:21.525Z,99665.61
2022-12-31T02:27:01.637Z,99663.48
2022-12-31T02:29:59.568Z,99672.41
2022-12-31T02:32:48.584Z,99680.66
2022-12-31T02:35:41.301Z,99688.27
2022-12-31T02:38:16.624Z,99687.13
2022-12-31T02:40:45.891Z,99690.11
2022-12-31T02:43:17.321Z,99684.66
2022-12-31T02:45:54.391Z,99683.83
2022-12-31T02:48:41.860Z,99688.86
2022-12-31T02:51:36.478Z,99688.09
2022-12-31T02:54:32.709Z,99702.65
2022-12-31T02:57:09.511Z,99697.83
2022-12-31T03:00:08.872Z,99693.34
2022-12-31T03:02:48.797Z,99692.34
2022-12-31T03:05:32.800Z,99691.49
2022-12-31T03:08:04.655Z,99687.09
2022-12-31T03:10:40.489Z,99688.51
2022-12-31T03:13:09.402Z,99692.13
2022-12-31T03:15:40.361Z,99696.19
2022-12-31T03:18:14.935Z,99701.98
2022-12-31T03:21:12.760Z,99703.01
2022-12-31T03:23:49.611Z,99701.87
2022-12-31T03:26:18.713Z,99702.40
2022-12-31T03:28:47.891Z,99709.58
2022-12-31T03:31:19.544Z,99714.63
2022-12-31T03:33:58.454Z,99705.26
2022-12-31T03:36:34.681Z,99697.86
2022-12-31T03:39:18.591Z,99695.52
2022-12-31T03:42:07.634Z,99703.45
2022-12-31T03:44:38.884Z,99707.39
2022-12-31T03:47:21.475Z,99706.36
2022-12-31T03:49:52.965Z,99712.04
2022-12-31T03:52:21.817Z,99711.64
2022-12-31T03:54:53.501Z,99714.17
2022-12-31T03:57:25.126Z,99714.74
2022-12-31T03:59:54.018Z,99725.52
2022-12-31T04:02:28.255Z,99734.61
2022-12-31T04:05:00.902Z,99737.56
2022-12-31T04:07:32.163Z,99740.80
2022-12-31T04:10:21.571Z,99744.75
2022-12-31T04:12:53.481Z,99737.94
2022-12-31T04:15:22.687Z,99740.46
2022-12-31T04:17:51.367Z,99742.60
2022-12-31T04:20:29.500Z,99749.27
2022-12-31T04:22:58.185Z,99749.83
2022-12-31T04:25:29.540Z,99746.16
2022-12-31T04:28:00.783Z,99745.75
2022-12-31T04:30:42.981Z,99746.70
2022-12-31T04:33:11.670Z,99745.97
2022-12-31T04:35:40.627Z,99740.48
2022-12-31T04:38:09.446Z,99746.41
2022-12-31T04:41:18.750Z,99745.62
2022-12-31T04:43:48.874Z,99740.80
2022-12-31T04:46:19.820Z,99735.59
2022-12-31T04:48:48.817Z,99734.39
2022-12-31T04:51:17.945Z,99733.45
2022-12-31T04:53:47.540Z,99724.73
2022-12-31T04:56:17.208Z,99719.92
2022-12-31T04:59:07.036Z,99714.14
2022-12-31T05:01:36.692Z,99710.62
2022-12-31T05:04:06.016Z,99710.65
2022-12-31T05:06:34.946Z,99709.49
2022-12-31T05:09:03.661Z,99706.55
2022-12-31T05:11:32.632Z,99712.08
2022-12-31T05:14:02.516Z,99707.90
2022-12-31T05:16:31.346Z,99702.10
2022-12-31T05:19:00.296Z,99708.34
2022-12-31T05:21:28.944Z,99708.38
2022-12-31T05:23:57.925Z,99717.67
2022-12-31T05:26:26.792Z,99722.29
2022-12-31T05:28:59.629Z,99729.42
2022-12-31T05:31:30.863Z,99732.43
2022-12-31T05:34:02.050Z,99734.46
2022-12-31T05:36:32.914Z,99741.77
2022-12-31T05:39:04.896Z,99741.17
2022-12-31T05:41:36.051Z,99743.87
2022-12-31T05:44:07.160Z,99746.05
2022-12-31T05:46:38.129Z,99753.19
2022-12-31T05:49:22.171Z,99751.89
2022-12-31T05:51:51.895Z,99749.29
2022-12-31T05:54:23.180Z,99742.48
2022-12-31T05:56:52.242Z,99737.73
2022-12-31T05:59:21.244Z,99734.97
2022-12-31T06:01:50.478Z,99741.97
2022-12-31T06:04:19.223Z,99741.02
2022-12-31T06:06:51.378Z,99740.88
2022-12-31T06:09:22.635Z,99744.84
2022-12-31T06:11:51.585Z,99739.83
2022-12-31T06:14:21.505Z,99738.48
2022-12-31T06:16:53.318Z,99737.15
2022-12-31T06:19:25.231Z,99733.59
2022-12-31T06:22:03.399Z,99740.46
2022-12-31T06:24:52.263Z,99740.46
2022-12-31T06:27:24.044Z,99742.09
2022-12-31T06:29:55.816Z,99745.64
2022-12-31T06:32:27.137Z,99746.78
2022-12-31T06:35:12.649Z,99751.65
2022-12-31T06:37:44.251Z,99746.77
2022-12-31T06:40:29.602Z,99745.51
2022-12-31T06:43:01.731Z,99742.84
2022-12-31T06:45:30.292Z,99757.38
2022-12-31T06:47:59.185Z,99757.68
2022-12-31T06:50:28.129Z,99756.02
2022-12-31T06:52:59.817Z,99748.82
2022-12-31T06:55:29.974Z,99753.92
2022-12-31T06:58:00.016Z,99750.39
2022-12-31T07:00:30.171Z,99751.55
2022-12-31T07:03:17.731Z,99756.07
2022-12-31T07:05:57.688Z,99765.91
2022-12-31T07:08:45.147Z,99777.02
2022-12-31T07:11:23.349Z,99780.82
2022-12-31T07:14:18.310Z,99785.83
2022-12-31T07:17:21.835Z,99775.45
2022-12-31T07:20:05.128Z,99777.71
2022-12-31T07:22:35.412Z,99782.92
2022-12-31T07:25:18.987Z,99789.65
2022-12-31T07:28:04.436Z,99792.00
2022-12-31T07:30:44.635Z,99796.95
2022-12-31T07:33:26.808Z,99782.05
2022-12-31T07:36:09.094Z,99764.18
2022-12-31T07:38:50.039Z,99757.65
2022-12-31T07:41:29.770Z,99756.06
2022-12-31T07:44:07.778Z,99769.91
2022-12-31T07:46:45.651Z,99781.27
2022-12-31T07:49:15.415Z,99783.88
2022-12-31T07:51:54.488Z,99785.10
2022-12-31T07:54:23.474Z,99792.33
2022-12-31T07:56:52.616Z,99788.03
2022-12-31T07:59:36.618Z,99800.64
2022-12-31T08:02:13.867Z,99805.92
2022-12-31T08:04:59.069Z,99820.02
2022-12-31T08:07:36.503Z,99822.80
2022-12-31T08:10:17.747Z,99823.16
2022-12-31T08:12:52.334Z,99818.59
2022-12-31T08:15:26.873Z,99813.50
2022-12-31T08:18:01.245Z,99811.52
2022-12-31T08:20:32.616Z,99804.14
2022-12-31T08:23:17.420Z,99804.56
2022-12-31T08:25:56.406Z,99803.50
2022-12-31T08:28:34.623Z,99806.30
2022-12-31T08:31:10.716Z,99808.60
2022-12-31T08:34:08.218Z,99796.71
2022-12-31T08:36:47.755Z,99793.33
2022-12-31T08:39:41.166Z,99796.81
2022-12-31T08:42:21.851Z,99800.45
2022-12-31T08:44:59.190Z,99798.19
2022-12-31T08:47:38.466Z,99799.08
2022-12-31T08:50:14.571Z,99803.05
2022-12-31T08:52:44.571Z,99800.08
2022-12-31T08:55:18.119Z,99795.55
2022-12-31T08:57:55.291Z,99790.20
2022-12-31T09:00:26.150Z,99786.37
2022-12-31T09:03:17.211Z,99785.31
2022-12-31T09:06:02.848Z,99786.33
2022-12-31T09:09:03.885Z,99797.91
2022-12-31T09:11:43.006Z,99800.23
2022-12-31T09:14:27.637Z,99805.49
2022-12-31T09:17:04.475Z,99805.92
2022-12-31T09:19:40.963Z,99810.65
2022-12-31T09:22:17.687Z,99819.92
2022-12-31T09:24:47.740Z,99817.55
2022-12-31T09:27:28.004Z,99815.88
2022-12-31T09:30:03.270Z,99826.67
2022-12-31T09:32:51.901Z,99822.02
2022-12-31T09:35:35.029Z,99819.30
2022-12-31T09:38:11.817Z,99826.68
2022-12-31T09:40:50.585Z,99812.95
2022-12-31T09:44:01.402Z,99807.45
2022-12-31T09:47:07.826Z,99808.38
2022-12-31T09:50:06.793Z,99795.89
2022-12-31T09:52:50.831Z,99803.37
2022-12-31T09:55:35.455Z,99793.26
2022-12-31T09:58:32.314Z,99788.69
2022-12-31T10:01:10.634Z,99789.27
2022-12-31T10:04:02.574Z,99794.85
2022-12-31T10:06:39.381Z,99796.38
2022-12-31T10:09:42.362Z,99805.98
2022-12-31T10:12:37.264Z,99804.80
2022-12-31T10:15:35.483Z,99809.10
2022-12-31T10:18:11.684Z,99806.81
2022-12-31T10:21:00.793Z,99802.53
2022-12-31T10:23:48.340Z,99795.04
2022-12-31T10:26:36.404Z,99796.64
2022-12-31T10:29:18.663Z,99794.35
2022-12-31T10:32:26.257Z,99783.08
2022-12-31T10:35:14.903Z,99776.39
2022-12-31T10:38:11.937Z,99768.66
2022-12-31T10:41:14.182Z,99763.91
2022-12-31T10:44:12.372Z,99766.83
2022-12-31T10:47:22.063Z,99780.83
2022-12-31T10:50:29.149Z,99781.06
2022-12-31T10:53:30.110Z,99776.94
2022-12-31T10:56:37.650Z,99776.67
2022-12-31T10:59:44.615Z,99787.64
2022-12-31T11:02:36.355Z,99788.22
2022-12-31T11:05:41.324Z,99778.16
2022-12-31T11:08:33.456Z,99772.31
2022-12-31T11:11:19.885Z,99761.94
2022-12-31T11:14:24.410Z,99757.29
2022-12-31T11:17:16.907Z,99749.96
2022-12-31T11:19:58.907Z,99754.33
2022-12-31T11:22:43.450Z,99755.58
2022-12-31T11:25:33.131Z,99755.30
2022-12-31T11:28:34.910Z,99756.92
2022-12-31T11:31:46.672Z,99754.80
2022-12-31T11:34:51.626Z,99750.29
2022-12-31T11:37:32.399Z,99756.89
2022-12-31T11:40:20.924Z,99765.96
2022-12-31T11:42:58.345Z,99766.86
2022-12-31T11:45:50.251Z,99761.10
2022-12-31T11:48:30.698Z,99760.52
2022-12-31T11:51:13.755Z,99760.99
2022-12-31T11:54:06.037Z,99761.08
2022-12-31T11:56:37.481Z,99758.39
2022-12-31T11:59:18.677Z,99755.53
2022-12-31T12:01:55.114Z,99746.36
2022-12-31T12:04:24.272Z,99748.02
2022-12-31T12:06:53.206Z,99743.07
2022-12-31T12:09:28.461Z,99742.56
2022-12-31T12:12:03.926Z,99735.82
2022-12-31T12:14:35.911Z,99734.20
2022-12-31T12:17:06.970Z,99734.25
2022-12-31T12:19:42.496Z,99729.16
2022-12-31T12:22:21.311Z,99727.90
2022-12-31T12:24:54.744Z,99727.54
2022-12-31T12:27:27.560Z,99725.38
2022-12-31T12:29:56.320Z,99727.90
2022-12-31T12:32:28.016Z,99737.48
2022-12-31T12:34:59.766Z,99733.55
2022-12-31T12:37:32.498Z,99724.85
2022-12-31T12:40:03.581Z,99729.05
2022-12-31T12:42:32.578Z,99727.34
2022-12-31T12:45:07.075Z,99727.68
2022-12-31T12:47:36.219Z,99727.92
2022-12-31T12:50:13.768Z,99725.90
2022-12-31T12:53:02.502Z,99720.98
2022-12-31T12:55:40.871Z,99718.52
2022-12-31T12:58:21.278Z,99715.09
2022-12-31T13:00:59.945Z,99717.67
2022-12-31T13:04:33.694Z,99724.27
2022-12-31T13:07:23.014Z,99732.24
2022-12-31T13:10:22.025Z,99734.88
2022-12-31T13:16:11.372Z,99737.80
2022-12-31T13:18:54.944Z,99740.47
2022-12-31T13:21:37.065Z,99741.54
2022-12-31T13:24:18.235Z,99749.11
2022-12-31T13:26:54.395Z,99747.02
2022-12-31T13:29:28.141Z,99748.17
2022-12-31T13:32:00.245Z,99747.17
2022-12-31T13:34:30.241Z,99748.98
2022-12-31T13:37:27.549Z,99742.80
2022-12-31T13:40:17.951Z,99746.48
2022-12-31T13:42:54.489Z,99748.08
2022-12-31T13:45:28.383Z,99749.78
2022-12-31T13:48:06.617Z,99757.88
2022-12-31T13:50:49.293Z,99747.91
2022-12-31T13:53:26.748Z,99750.29
2022-12-31T13:56:02.996Z,99750.83
2022-12-31T13:58:42.520Z,99744.57
2022-12-31T14:01:33.625Z,99748.30
2022-12-31T14:04:07.853Z,99752.80
2022-12-31T14:06:45.568Z,99753.14
2022-12-31T14:09:20.247Z,99750.54
2022-12-31T14:12:09.560Z,99753.59
2022-12-31T14:14:48.658Z,99757.15
2022-12-31T14:17:46.056Z,99754.01
2022-12-31T14:20:24.713Z,99757.27
2022-12-31T14:23:05.795Z,99756.82
2022-12-31T14:25:40.691Z,99757.38
2022-12-31T14:28:19.418Z,99754.69
2022-12-31T14:30:56.344Z,99756.16
2022-12-31T14:33:49.389Z,99755.31
2022-12-31T14:36:32.533Z,99759.09
2022-12-31T14:39:29.411Z,99761.80
2022-12-31T14:42:22.351Z,99760.25
2022-12-31T14:45:23.320Z,99762.16
2022-12-31T14:48:01.784Z,99762.48
2022-12-31T14:50:51.299Z,99771.16
2022-12-31T14:53:50.858Z,99776.27
2022-12-31T14:56:42.236Z,99774.81
2022-12-31T14:59:25.886Z,99782.86
2022-12-31T15:02:27.947Z,99778.44
2022-12-31T15:05:14.179Z,99784.45
2022-12-31T15:08:24.576Z,99782.21
2022-12-31T15:11:39.238Z,99785.39
2022-12-31T15:14:41.438Z,99789.86
2022-12-31T15:17:30.067Z,99790.83
2022-12-31T15:20:46.601Z,99792.13
2022-12-31T15:23:23.300Z,99802.67
2022-12-31T15:25:56.952Z,99801.34
2022-12-31T15:28:33.999Z,99802.33
2022-12-31T15:31:09.972Z,99808.13
2022-12-31T15:33:53.705Z,99805.39
2022-12-31T15:36:27.784Z,99807.01
2022-12-31T15:39:25.346Z,99814.02
2022-12-31T15:42:54.998Z,99821.39
2022-12-31T15:45:31.222Z,99821.53
2022-12-31T15:48:05.507Z,99823.12
2022-12-31T15:50:38.817Z,99825.05
2022-12-31T15:53:07.879Z,99820.69
2022-12-31T15:55:42.714Z,99816.95
2022-12-31T15:58:15.447Z,99812.90
2022-12-31T16:00:57.085Z,99814.52
2022-12-31T16:03:29.005Z,99813.44
2022-12-31T16:06:00.882Z,99812.00
2022-12-31T16:08:31.093Z,99813.61
2022-12-31T16:11:00.333Z,99811.12
2022-12-31T16:13:30.454Z,99810.91
2022-12-31T16:16:02.763Z,99809.10
2022-12-31T16:18:39.154Z,99812.71
2022-12-31T16:21:24.339Z,99805.67
2022-12-31T16:23:54.408Z,99811.67
2022-12-31T16:26:25.301Z,99819.85
2022-12-31T16:28:59.356Z,99828.73
2022-12-31T16:31:30.204Z,99835.11
2022-12-31T16:34:07.605Z,99843.23
2022-12-31T16:36:36.196Z,99847.98
2022-12-31T16:39:24.315Z,99849.55
2022-12-31T16:42:06.357Z,99853.16
2022-12-31T16:44:35.264Z,99854.67
2022-12-31T16:47:08.501Z,99855.19
2022-12-31T16:49:39.702Z,99853.39
2022-12-31T16:52:24.800Z,99850.40
2022-12-31T16:54:54.744Z,99851.69
2022-12-31T16:57:26.183Z,99846.49
2022-12-31T16:59:59.145Z,99845.87
2022-12-31T17:02:34.260Z,99850.81
2022-12-31T17:05:06.537Z,99854.20
2022-12-31T17:07:39.628Z,99858.08
2022-12-31T17:10:19.878Z,99852.77
2022-12-31T17:15:52.272Z,99843.73
2022-12-31T17:18:24.050Z,99844.10
2022-12-31T17:20:54.692Z,99854.48
2022-12-31T17:23:28.678Z,99859.40
2022-12-31T17:26:08.734Z,99862.31
2022-12-31T17:28:45.385Z,99865.23
2022-12-31T17:31:31.155Z,99862.05
2022-12-31T17:34:30.978Z,99870.95
2022-12-31T17:37:02.796Z,99867.84
2022-12-31T17:39:44.208Z,99868.59
2022-12-31T17:42:14.912Z,99873.52
2022-12-31T17:44:44.264Z,99882.51
2022-12-31T17:47:13.694Z,99891.06
2022-12-31T17:49:45.533Z,99893.15
2022-12-31T17:52:15.656Z,99886.92
2022-12-31T17:54:44.407Z,99882.33
2022-12-31T17:57:24.408Z,99885.95
2022-12-31T17:59:53.498Z,99886.75
2022-12-31T18:02:22.192Z,99887.64
2022-12-31T18:04:52.401Z,99893.98
2022-12-31T18:07:21.214Z,99894.69
2022-12-31T18:09:50.040Z,99895.55
2022-12-31T18:12:19.543Z,99896.63
2022-12-31T18:14:48.203Z,99902.45
2022-12-31T18:17:17.226Z,99907.48
2022-12-31T18:20:06.163Z,99905.13
2022-12-31T18:22:44.677Z,99912.13
2022-12-31T18:25:17.521Z,99905.65
2022-12-31T18:27:55.284Z,99905.70
2022-12-31T18:30:25.133Z,99910.30
2022-12-31T18:32:57.742Z,99914.27
2022-12-31T18:36:06.608Z,99917.52
2022-12-31T18:38:17.676Z,99914.14
2022-12-31T18:40:53.417Z,99911.46
2022-12-31T18:43:22.887Z,99911.12
2022-12-31T18:45:53.182Z,99911.44
2022-12-31T18:48:25.487Z,99914.26
2022-12-31T18:50:55.666Z,99920.45
2022-12-31T18:53:24.956Z,99923.04
2022-12-31T18:55:57.813Z,99922.86
2022-12-31T18:58:27.015Z,99921.63
2022-12-31T19:00:55.896Z,99926.95
2022-12-31T19:03:35.570Z,99922.11
2022-12-31T19:06:08.808Z,99917.06
2022-12-31T19:08:37.757Z,99918.73
2022-12-31T19:11:16.181Z,99919.66
2022-12-31T19:13:45.112Z,99916.45
2022-12-31T19:16:22.052Z,99922.08
2022-12-31T19:18:53.031Z,99926.86
2022-12-31T19:21:32.726Z,99928.71
2022-12-31T19:24:01.527Z,99938.59
2022-12-31T19:26:30.334Z,99933.05
2022-12-31T19:29:02.264Z,99927.02
2022-12-31T19:31:51.433Z,99924.61
2022-12-31T19:34:40.563Z,99921.54
2022-12-31T19:37:14.513Z,99927.44
2022-12-31T19:39:52.822Z,99922.97
2022-12-31T19:42:21.875Z,99923.66
2022-12-31T19:44:53.714Z,99916.48
2022-12-31T19:47:33.814Z,99904.67
2022-12-31T19:50:02.701Z,99904.50
2022-12-31T19:52:34.151Z,99902.45
2022-12-31T19:55:15.606Z,99896.20
2022-12-31T19:57:44.816Z,99889.14
2022-12-31T20:00:16.706Z,99891.42
2022-12-31T20:02:57.286Z,99900.09
2022-12-31T20:05:28.407Z,99905.37
2022-12-31T20:07:57.327Z,99907.27
2022-12-31T20:10:28.327Z,99904.98
2022-12-31T20:12:56.906Z,99902.57
2022-12-31T20:15:33.484Z,99898.42
2022-12-31T20:18:05.185Z,99896.02
2022-12-31T20:20:33.948Z,99896.11
2022-12-31T20:23:02.678Z,99895.94
2022-12-31T20:25:31.332Z,99898.46
2022-12-31T20:28:02.718Z,99899.48
2022-12-31T20:30:31.487Z,99900.50
2022-12-31T20:33:00.387Z,99902.52
2022-12-31T20:35:30.944Z,99900.31
2022-12-31T20:38:01.818Z,99897.51
2022-12-31T20:40:32.012Z,99894.45
2022-12-31T20:43:01.076Z,99901.55
2022-12-31T20:45:30.308Z,99906.98
2022-12-31T20:48:03.255Z,99900.13
2022-12-31T20:50:32.104Z,99905.19
2022-12-31T20:53:01.611Z,99909.45
2022-12-31T20:55:31.717Z,99917.27
2022-12-31T20:58:03.563Z,99922.51
2022-12-31T21:00:35.862Z,99917.27
2022-12-31T21:03:18.656Z,99924.10
2022-12-31T21:05:55.980Z,99931.83
2022-12-31T21:08:29.657Z,99935.44
2022-12-31T21:11:02.295Z,99932.89
2022-12-31T21:13:56.965Z,99935.19
2022-12-31T21:16:26.168Z,99929.70
2022-12-31T21:18:55.825Z,99929.02
2022-12-31T21:21:44.754Z,99932.15
2022-12-31T21:24:17.484Z,99929.60
2022-12-31T21:26:49.515Z,99928.94
2022-12-31T21:29:34.491Z,99930.09
2022-12-31T21:32:07.619Z,99926.82
2022-12-31T21:34:36.395Z,99932.83
2022-12-31T21:37:05.918Z,99932.92
2022-12-31T21:39:44.360Z,99928.41
2022-12-31T21:42:13.205Z,99929.15
2022-12-31T21:44:41.947Z,99927.70
2022-12-31T21:47:39.770Z,99929.63
2022-12-31T21:50:15.046Z,99933.19
2022-12-31T21:52:44.970Z,99931.60
2022-12-31T21:55:32.969Z,99934.30
2022-12-31T22:01:09.059Z,99926.19
2022-12-31T22:03:38.111Z,99933.85
2022-12-31T22:06:09.885Z,99936.13
2022-12-31T22:08:42.793Z,99939.45
2022-12-31T22:11:13.494Z,99937.11
2022-12-31T22:13:43.645Z,99928.21
2022-12-31T22:16:21.496Z,99919.79
2022-12-31T22:18:50.612Z,99915.54
2022-12-31T22:21:23.107Z,99914.55
2022-12-31T22:23:53.647Z,99913.16
2022-12-31T22:26:25.911Z,99912.85
2022-12-31T22:28:58.396Z,99915.68
2022-12-31T22:31:29.719Z,99913.52
2022-12-31T22:33:59.248Z,99916.30
2022-12-31T22:36:28.005Z,99910.88
2022-12-31T22:38:57.785Z,99919.13
2022-12-31T22:41:27.394Z,99921.30
2022-12-31T22:44:04.154Z,99920.30
2022-12-31T22:46:34.828Z,99922.73
2022-12-31T22:49:04.842Z,99915.69
2022-12-31T22:51:56.758Z,99915.81
2022-12-31T22:54:24.705Z,99911.05
2022-12-31T22:56:53.444Z,99913.00
2022-12-31T22:59:23.238Z,99911.42
2022-12-31T23:01:51.926Z,99909.01
2022-12-31T23:04:24.035Z,99916.37
2022-12-31T23:06:52.857Z,99915.87
2022-12-31T23:09:42.941Z,99912.23
2022-12-31T23:12:11.787Z,99916.58
2022-12-31T23:14:58.621Z,99911.44
2022-12-31T23:17:46.477Z,99908.95
2022-12-31T23:20:40.191Z,99912.19
2022-12-31T23:23:13.655Z,99913.11
2022-12-31T23:25:44.559Z,99907.53
2022-12-31T23:28:19.113Z,99906.77
2022-12-31T23:30:51.643Z,99909.02
2022-12-31T23:33:23.815Z,99909.14
2022-12-31T23:36:03.390Z,99905.86
2022-12-31T23:38:32.033Z,99911.73
2022-12-31T23:41:00.842Z,99915.00
2022-12-31T23:43:29.714Z,99919.19
2022-12-31T23:45:58.285Z,99928.66
2022-12-31T23:48:27.102Z,99925.95
2022-12-31T23:50:55.688Z,99922.26
2022-12-31T23:53:26.934Z,99923.12
2022-12-31T23:55:55.850Z,99917.46
2022-12-31T23:58:24.972Z,99916.02
